createdAt,value
2019-02-26T00:02:23.762Z,5.38
2019-02-26T00:04:55.942Z,5.35
2019-02-26T00:07:27.072Z,5.26
2019-02-26T00:09:57.462Z,5.23
2019-02-26T00:12:28.713Z,5.22
2019-02-26T00:15:00.268Z,5.07
2019-02-26T00:17:29.202Z,4.88
2019-02-26T00:19:58.514Z,4.93
2019-02-26T00:22:28.194Z,4.89
2019-02-26T00:25:00.921Z,5.03
2019-02-26T00:27:30.615Z,5.09
2019-02-26T00:30:01.000Z,5.13
2019-02-26T00:32:31.897Z,5.03
2019-02-26T00:35:02.030Z,4.63
2019-02-26T00:37:32.516Z,4.87
2019-02-26T00:40:01.786Z,4.91
2019-02-26T00:42:33.712Z,4.98
2019-02-26T00:45:03.340Z,4.93
2019-02-26T00:47:35.935Z,4.91
2019-02-26T00:50:09.559Z,4.98
2019-02-26T00:52:39.275Z,4.70
2019-02-26T00:55:09.768Z,4.56
2019-02-26T00:57:40.656Z,4.57
2019-02-26T01:00:15.423Z,4.73
2019-02-26T01:02:45.051Z,4.70
2019-02-26T01:05:16.393Z,4.72
2019-02-26T01:07:49.306Z,4.36
2019-02-26T01:10:19.278Z,4.32
2019-02-26T01:12:48.693Z,4.67
2019-02-26T01:15:20.416Z,4.69
2019-02-26T01:17:49.706Z,4.64
2019-02-26T01:20:22.638Z,4.60
2019-02-26T01:22:50.540Z,4.72
2019-02-26T01:25:20.908Z,4.70
2019-02-26T01:27:53.189Z,4.72
2019-02-26T01:30:24.314Z,4.70
2019-02-26T01:32:52.785Z,4.61
2019-02-26T01:35:22.355Z,4.74
2019-02-26T01:37:53.634Z,4.81
2019-02-26T01:40:24.006Z,4.77
2019-02-26T01:42:55.619Z,4.83
2019-02-26T01:45:27.328Z,4.86
2019-02-26T01:47:55.614Z,4.83
2019-02-26T01:50:24.914Z,4.78
2019-02-26T01:52:56.224Z,4.84
2019-02-26T01:55:25.757Z,4.83
2019-02-26T01:57:58.466Z,4.73
2019-02-26T02:00:27.237Z,4.65
2019-02-26T02:02:56.588Z,4.41
2019-02-26T02:05:28.569Z,4.28
2019-02-26T02:07:57.020Z,4.44
2019-02-26T02:10:26.350Z,4.54
2019-02-26T02:12:59.560Z,4.50
2019-02-26T02:15:26.998Z,4.42
2019-02-26T02:17:57.734Z,4.40
2019-02-26T02:20:27.289Z,4.07
2019-02-26T02:22:58.181Z,4.31
2019-02-26T02:25:31.047Z,4.23
2019-02-26T02:27:59.558Z,4.20
2019-02-26T02:30:31.408Z,4.31
2019-02-26T02:33:02.122Z,4.26
2019-02-26T02:35:31.571Z,4.08
2019-02-26T02:38:02.835Z,4.02
2019-02-26T02:40:32.105Z,3.87
2019-02-26T02:43:04.518Z,3.97
2019-02-26T02:45:32.375Z,3.93
2019-02-26T02:48:03.286Z,3.76
2019-02-26T02:50:32.658Z,3.85
2019-02-26T02:53:03.939Z,4.15
2019-02-26T02:55:33.218Z,4.08
2019-02-26T02:58:02.518Z,4.07
2019-02-26T03:00:34.336Z,4.02
2019-02-26T03:03:02.874Z,4.03
2019-02-26T03:05:35.101Z,4.01
2019-02-26T03:08:03.153Z,3.95
2019-02-26T03:10:34.601Z,3.90
2019-02-26T03:13:03.650Z,3.95
2019-02-26T03:15:35.711Z,3.82
2019-02-26T03:18:06.524Z,3.91
2019-02-26T03:20:39.900Z,3.79
2019-02-26T03:23:09.332Z,3.76
2019-02-26T03:25:37.830Z,3.39
2019-02-26T03:28:07.160Z,3.49
2019-02-26T03:30:40.607Z,3.43
2019-02-26T03:33:07.472Z,3.57
2019-02-26T03:35:36.746Z,3.41
2019-02-26T03:38:06.047Z,3.41
2019-02-26T03:40:36.142Z,3.27
2019-02-26T03:43:07.736Z,3.30
2019-02-26T03:45:36.809Z,3.13
2019-02-26T03:48:06.150Z,3.54
2019-02-26T03:50:35.459Z,3.62
2019-02-26T03:53:09.012Z,3.67
2019-02-26T03:55:38.728Z,3.75
2019-02-26T03:58:07.418Z,3.70
2019-02-26T04:00:38.619Z,3.67
2019-02-26T04:03:09.331Z,3.59
2019-02-26T04:05:38.836Z,3.51
2019-02-26T04:08:08.521Z,3.38
2019-02-26T04:10:37.819Z,3.53
2019-02-26T04:13:07.114Z,3.43
2019-02-26T04:15:38.408Z,3.39
2019-02-26T04:18:07.817Z,3.34
2019-02-26T04:20:37.126Z,3.28
2019-02-26T04:23:08.413Z,3.27
2019-02-26T04:25:51.490Z,3.17
2019-02-26T04:28:33.044Z,3.08
2019-02-26T04:31:03.294Z,3.25
2019-02-26T04:34:08.429Z,3.18
2019-02-26T04:36:44.852Z,3.11
2019-02-26T04:39:36.983Z,3.05
2019-02-26T04:42:35.196Z,3.06
2019-02-26T04:45:13.520Z,3.13
2019-02-26T04:48:04.206Z,3.15
2019-02-26T04:50:35.494Z,3.01
2019-02-26T04:53:08.334Z,3.00
2019-02-26T04:55:38.214Z,2.99
2019-02-26T04:58:08.687Z,2.96
2019-02-26T05:00:38.719Z,2.88
2019-02-26T05:03:11.221Z,2.89
2019-02-26T05:05:39.232Z,2.81
2019-02-26T05:08:10.521Z,2.84
2019-02-26T05:10:39.504Z,3.08
2019-02-26T05:13:09.689Z,3.09
2019-02-26T05:15:39.363Z,2.98
2019-02-26T05:18:08.677Z,2.87
2019-02-26T05:20:40.076Z,2.67
2019-02-26T05:23:09.238Z,2.75
2019-02-26T05:25:39.734Z,2.89
2019-02-26T05:28:12.040Z,2.84
2019-02-26T05:30:43.198Z,2.77
2019-02-26T05:33:11.510Z,2.90
2019-02-26T05:35:43.785Z,2.69
2019-02-26T05:38:11.816Z,2.81
2019-02-26T05:40:42.765Z,2.74
2019-02-26T05:43:12.106Z,2.58
2019-02-26T05:45:41.421Z,2.60
2019-02-26T05:48:12.472Z,2.64
2019-02-26T05:50:44.582Z,2.83
2019-02-26T05:53:13.500Z,2.71
2019-02-26T05:55:45.121Z,2.57
2019-02-26T05:58:18.088Z,2.48
2019-02-26T06:00:45.082Z,2.54
2019-02-26T06:03:16.299Z,2.51
2019-02-26T06:05:46.569Z,2.55
2019-02-26T06:08:16.354Z,2.67
2019-02-26T06:10:45.656Z,2.72
2019-02-26T06:13:15.699Z,2.84
2019-02-26T06:15:45.309Z,2.90
2019-02-26T06:18:14.618Z,2.83
2019-02-26T06:20:43.902Z,2.90
2019-02-26T06:23:13.206Z,2.95
2019-02-26T06:25:42.492Z,2.90
2019-02-26T06:28:13.563Z,2.91
2019-02-26T06:30:42.793Z,2.89
2019-02-26T06:33:13.895Z,2.95
2019-02-26T06:35:43.160Z,2.95
2019-02-26T06:38:12.501Z,2.94
2019-02-26T06:40:46.515Z,2.89
2019-02-26T06:43:13.110Z,3.16
2019-02-26T06:45:43.695Z,3.29
2019-02-26T06:48:16.968Z,3.74
2019-02-26T06:50:44.478Z,3.68
2019-02-26T06:53:16.144Z,3.80
2019-02-26T06:55:44.784Z,4.07
2019-02-26T06:58:27.399Z,3.89
2019-02-26T07:00:57.616Z,3.86
2019-02-26T07:03:26.915Z,3.94
2019-02-26T07:05:56.590Z,4.33
2019-02-26T07:08:28.634Z,4.89
2019-02-26T07:10:57.141Z,5.44
2019-02-26T07:13:26.433Z,5.54
2019-02-26T07:15:55.753Z,5.46
2019-02-26T07:18:25.183Z,5.78
2019-02-26T07:20:57.237Z,6.08
2019-02-26T07:23:27.306Z,6.09
2019-02-26T07:25:56.432Z,6.09
2019-02-26T07:28:26.870Z,5.95
2019-02-26T07:30:56.397Z,5.66
2019-02-26T07:33:27.418Z,5.93
2019-02-26T07:35:57.450Z,5.93
2019-02-26T07:38:27.801Z,6.00
2019-02-26T07:40:59.024Z,6.41
2019-02-26T07:43:28.096Z,6.43
2019-02-26T07:45:57.401Z,6.37
2019-02-26T07:48:28.929Z,6.37
2019-02-26T07:50:57.725Z,6.13
2019-02-26T07:53:27.040Z,6.40
2019-02-26T07:55:56.891Z,6.40
2019-02-26T07:58:27.329Z,6.74
2019-02-26T08:00:56.611Z,7.06
2019-02-26T08:03:26.880Z,7.17
2019-02-26T08:05:56.997Z,7.36
2019-02-26T08:08:26.276Z,7.40
2019-02-26T08:10:55.550Z,7.73
2019-02-26T08:13:26.870Z,8.08
2019-02-26T08:15:57.742Z,8.12
2019-02-26T08:18:26.947Z,8.27
2019-02-26T08:20:57.965Z,7.94
2019-02-26T08:23:27.242Z,7.94
2019-02-26T08:25:57.844Z,8.42
2019-02-26T08:28:27.549Z,8.50
2019-02-26T08:30:57.262Z,8.54
2019-02-26T08:33:27.003Z,8.69
2019-02-26T08:35:56.327Z,8.80
2019-02-26T08:38:29.266Z,8.85
2019-02-26T08:40:56.599Z,9.81
2019-02-26T08:43:26.123Z,11.16
2019-02-26T08:45:55.422Z,12.01
2019-02-26T08:48:26.846Z,12.15
2019-02-26T08:50:56.041Z,12.39
2019-02-26T08:53:26.640Z,12.13
2019-02-26T08:55:58.782Z,12.45
2019-02-26T08:58:28.292Z,12.74
2019-02-26T09:00:57.893Z,12.61
2019-02-26T09:03:27.169Z,12.81
2019-02-26T09:06:09.927Z,12.60
2019-02-26T09:08:27.489Z,13.00
2019-02-26T09:10:56.812Z,13.88
2019-02-26T09:13:26.090Z,14.48
2019-02-26T09:15:56.329Z,15.46
2019-02-26T09:18:28.109Z,16.05
2019-02-26T09:20:57.392Z,15.96
2019-02-26T09:23:28.688Z,14.49
2019-02-26T09:26:00.358Z,14.50
2019-02-26T09:28:30.091Z,15.23
2019-02-26T09:31:03.734Z,15.78
2019-02-26T09:33:33.006Z,15.52
2019-02-26T09:36:02.294Z,15.66
2019-02-26T09:38:31.614Z,16.22
2019-02-26T09:41:00.926Z,15.18
2019-02-26T09:43:30.237Z,15.14
2019-02-26T09:45:59.799Z,15.81
2019-02-26T09:48:29.102Z,14.99
2019-02-26T09:50:58.389Z,14.24
2019-02-26T09:53:27.735Z,14.16
2019-02-26T09:55:57.046Z,14.11
2019-02-26T09:58:26.525Z,14.90
2019-02-26T10:00:55.987Z,15.74
2019-02-26T10:03:26.780Z,16.46
2019-02-26T10:05:57.917Z,17.78
2019-02-26T10:08:29.934Z,18.24
2019-02-26T10:11:00.205Z,18.62
2019-02-26T10:13:29.635Z,19.40
2019-02-26T10:16:01.218Z,19.44
2019-02-26T10:18:30.917Z,19.50
2019-02-26T10:21:00.939Z,18.76
2019-02-26T10:23:33.070Z,18.29
2019-02-26T10:26:03.467Z,18.38
2019-02-26T10:28:35.206Z,17.81
2019-02-26T10:31:04.883Z,17.85
2019-02-26T10:33:37.988Z,18.05
2019-02-26T10:36:07.888Z,17.64
2019-02-26T10:38:38.466Z,18.77
2019-02-26T10:41:07.584Z,17.96
2019-02-26T10:43:36.951Z,19.04
2019-02-26T10:46:06.232Z,20.78
2019-02-26T10:48:35.533Z,21.86
2019-02-26T10:51:06.451Z,21.58
2019-02-26T10:53:36.176Z,21.36
2019-02-26T10:56:05.560Z,21.34
2019-02-26T10:58:34.887Z,20.49
2019-02-26T11:01:05.521Z,20.54
2019-02-26T11:03:37.951Z,20.57
2019-02-26T11:06:07.325Z,22.15
2019-02-26T11:08:36.774Z,24.21
2019-02-26T11:11:08.131Z,24.56
2019-02-26T11:13:39.755Z,25.15
2019-02-26T11:16:08.345Z,24.38
2019-02-26T11:18:39.817Z,24.25
2019-02-26T11:21:08.914Z,23.08
2019-02-26T11:23:38.745Z,23.10
2019-02-26T11:26:10.779Z,22.92
2019-02-26T11:28:41.026Z,23.71
2019-02-26T11:31:13.655Z,24.14
2019-02-26T11:33:42.235Z,24.32
2019-02-26T11:36:13.113Z,23.75
2019-02-26T11:38:44.396Z,24.65
2019-02-26T11:41:13.620Z,25.31
2019-02-26T11:43:43.014Z,24.16
2019-02-26T11:46:12.283Z,23.46
2019-02-26T11:48:41.592Z,24.04
2019-02-26T11:51:12.061Z,24.60
2019-02-26T11:53:43.479Z,24.59
2019-02-26T11:56:13.525Z,25.42
2019-02-26T11:58:43.849Z,23.59
2019-02-26T12:01:13.803Z,22.28
2019-02-26T12:03:43.917Z,22.56
2019-02-26T12:06:13.602Z,23.49
2019-02-26T12:08:44.790Z,24.81
2019-02-26T12:11:17.704Z,23.70
2019-02-26T12:13:47.215Z,25.43
2019-02-26T12:16:15.890Z,24.96
2019-02-26T12:18:47.035Z,26.45
2019-02-26T12:21:16.219Z,26.99
2019-02-26T12:23:46.701Z,25.97
2019-02-26T12:26:18.974Z,27.23
2019-02-26T12:28:47.199Z,26.75
2019-02-26T12:31:16.503Z,25.81
2019-02-26T12:33:46.119Z,28.51
2019-02-26T12:36:15.392Z,29.41
2019-02-26T12:38:44.677Z,29.44
2019-02-26T12:41:15.985Z,28.88
2019-02-26T12:43:46.480Z,28.73
2019-02-26T12:46:15.913Z,28.32
2019-02-26T12:48:47.713Z,26.35
2019-02-26T12:51:16.233Z,25.79
2019-02-26T12:53:49.051Z,27.27
2019-02-26T12:56:16.524Z,28.03
2019-02-26T12:58:48.269Z,28.23
2019-02-26T13:01:16.803Z,29.40
2019-02-26T13:03:50.271Z,29.13
2019-02-26T13:06:18.658Z,29.16
2019-02-26T13:08:50.512Z,28.98
2019-02-26T13:11:21.032Z,29.83
2019-02-26T13:13:53.412Z,28.62
2019-02-26T13:16:21.415Z,28.29
2019-02-26T13:18:51.672Z,26.75
2019-02-26T13:21:21.706Z,28.78
2019-02-26T13:23:50.987Z,27.77
2019-02-26T13:26:22.526Z,25.44
2019-02-26T13:28:52.702Z,26.76
2019-02-26T13:31:22.764Z,27.37
2019-02-26T13:33:52.564Z,26.28
2019-02-26T13:36:22.362Z,27.21
2019-02-26T13:38:51.670Z,26.07
2019-02-26T13:41:29.528Z,26.00
2019-02-26T13:43:51.997Z,24.83
2019-02-26T13:46:21.606Z,22.19
2019-02-26T13:48:50.906Z,22.05
2019-02-26T13:51:20.271Z,21.66
2019-02-26T13:53:49.602Z,21.89
2019-02-26T13:56:18.953Z,20.46
2019-02-26T13:58:49.099Z,20.97
2019-02-26T14:01:18.452Z,21.09
2019-02-26T14:03:47.764Z,20.19
2019-02-26T14:06:17.070Z,20.32
2019-02-26T14:08:46.342Z,19.88
2019-02-26T14:11:16.102Z,20.12
2019-02-26T14:13:45.413Z,20.07
2019-02-26T14:16:15.013Z,20.12
2019-02-26T14:18:44.340Z,19.49
2019-02-26T14:21:14.100Z,19.34
2019-02-26T14:23:43.559Z,19.68
2019-02-26T14:26:12.836Z,19.69
2019-02-26T14:28:42.174Z,19.54
2019-02-26T14:31:11.443Z,19.26
2019-02-26T14:33:40.752Z,19.51
2019-02-26T14:36:10.029Z,19.63
2019-02-26T14:38:39.376Z,19.69
2019-02-26T14:41:08.700Z,19.58
2019-02-26T14:43:37.990Z,19.46
2019-02-26T14:46:07.340Z,19.21
2019-02-26T14:48:36.763Z,19.03
2019-02-26T14:51:06.066Z,18.97
2019-02-26T14:53:35.503Z,19.25
2019-02-26T14:56:05.475Z,18.91
2019-02-26T14:58:34.902Z,18.84
2019-02-26T15:01:05.275Z,19.12
2019-02-26T15:03:34.584Z,19.07
2019-02-26T15:06:03.871Z,19.07
2019-02-26T15:08:33.239Z,19.12
2019-02-26T15:11:02.643Z,18.93
2019-02-26T15:13:32.018Z,19.07
2019-02-26T15:16:01.342Z,19.05
2019-02-26T15:18:31.097Z,18.83
2019-02-26T15:21:00.412Z,18.74
2019-02-26T15:23:29.803Z,18.55
2019-02-26T15:25:59.113Z,18.66
2019-02-26T15:28:28.459Z,18.49
2019-02-26T15:30:58.114Z,18.65
2019-02-26T15:33:27.400Z,18.67
2019-02-26T15:35:56.767Z,18.64
2019-02-26T15:38:26.083Z,18.66
2019-02-26T15:40:55.584Z,18.74
2019-02-26T15:43:25.142Z,18.60
2019-02-26T15:45:55.144Z,18.35
2019-02-26T15:48:24.792Z,18.48
2019-02-26T15:50:54.093Z,18.29
2019-02-26T15:53:24.361Z,18.32
2019-02-26T15:55:53.945Z,18.32
2019-02-26T15:58:23.695Z,18.21
2019-02-26T16:00:53.135Z,18.16
2019-02-26T16:03:22.452Z,18.13
2019-02-26T16:05:53.974Z,18.23
2019-02-26T16:08:23.401Z,18.15
2019-02-26T16:10:52.720Z,18.09
2019-02-26T16:13:22.030Z,18.07
2019-02-26T16:15:51.369Z,18.12
2019-02-26T16:18:20.690Z,18.02
2019-02-26T16:20:50.248Z,18.06
2019-02-26T16:23:19.775Z,17.97
2019-02-26T16:25:49.100Z,17.93
2019-02-26T16:28:18.375Z,17.82
2019-02-26T16:30:47.714Z,17.81
2019-02-26T16:33:17.010Z,17.65
2019-02-26T16:35:46.331Z,17.48
2019-02-26T16:38:15.649Z,17.36
2019-02-26T16:40:44.963Z,17.34
2019-02-26T16:43:14.841Z,17.26
2019-02-26T16:45:45.263Z,17.15
2019-02-26T16:48:14.573Z,17.10
2019-02-26T16:50:45.558Z,17.06
2019-02-26T16:53:15.598Z,16.86
2019-02-26T16:55:48.488Z,16.71
2019-02-26T16:58:16.215Z,16.61
2019-02-26T17:00:46.546Z,16.50
2019-02-26T17:03:16.607Z,16.37
2019-02-26T17:05:47.605Z,16.27
2019-02-26T17:08:17.116Z,16.20
2019-02-26T17:10:46.412Z,16.11
2019-02-26T17:13:15.962Z,16.05
2019-02-26T17:15:45.489Z,15.89
2019-02-26T17:18:16.208Z,15.80
2019-02-26T17:20:45.879Z,15.66
2019-02-26T17:23:15.478Z,15.56
2019-02-26T17:25:44.784Z,15.50
2019-02-26T17:28:14.088Z,15.45
2019-02-26T17:30:43.786Z,15.29
2019-02-26T17:33:14.559Z,15.15
2019-02-26T17:35:44.230Z,15.17
2019-02-26T17:38:15.534Z,15.03
2019-02-26T17:40:44.575Z,14.90
2019-02-26T17:43:13.877Z,14.89
2019-02-26T17:45:43.193Z,14.76
2019-02-26T17:48:12.765Z,14.16
2019-02-26T17:50:45.708Z,14.13
2019-02-26T17:53:13.884Z,14.14
2019-02-26T17:55:43.197Z,13.83
2019-02-26T17:58:12.485Z,13.52
2019-02-26T18:00:43.458Z,13.31
2019-02-26T18:03:12.795Z,13.53
2019-02-26T18:05:50.907Z,13.28
2019-02-26T18:08:16.803Z,13.41
2019-02-26T18:10:44.582Z,13.50
2019-02-26T18:13:13.900Z,13.10
2019-02-26T18:15:43.277Z,12.96
2019-02-26T18:18:12.899Z,12.63
2019-02-26T18:20:42.474Z,12.51
2019-02-26T18:23:11.786Z,12.49
2019-02-26T18:25:41.237Z,12.39
2019-02-26T18:28:10.566Z,12.36
2019-02-26T18:30:39.927Z,12.33
2019-02-26T18:33:09.395Z,12.62
2019-02-26T18:35:39.012Z,12.43
2019-02-26T18:38:08.411Z,12.37
2019-02-26T18:40:38.212Z,12.27
2019-02-26T18:43:07.812Z,12.00
2019-02-26T18:45:37.609Z,11.90
2019-02-26T18:48:09.071Z,11.96
2019-02-26T18:50:39.184Z,11.93
2019-02-26T18:53:08.695Z,12.04
2019-02-26T18:55:38.049Z,12.06
2019-02-26T18:58:07.654Z,12.05
2019-02-26T19:00:37.305Z,11.88
2019-02-26T19:03:09.379Z,11.69
2019-02-26T19:05:37.734Z,11.60
2019-02-26T19:08:07.470Z,11.41
2019-02-26T19:10:36.793Z,11.37
2019-02-26T19:13:06.177Z,11.20
2019-02-26T19:15:36.148Z,11.20
2019-02-26T19:18:05.716Z,11.19
2019-02-26T19:20:37.179Z,11.25
2019-02-26T19:23:06.581Z,11.23
2019-02-26T19:25:35.941Z,11.18
2019-02-26T19:28:05.266Z,11.32
2019-02-26T19:30:36.684Z,11.10
2019-02-26T19:33:05.821Z,10.85
2019-02-26T19:35:40.163Z,10.72
2019-02-26T19:38:06.948Z,10.63
2019-02-26T19:40:39.911Z,10.59
2019-02-26T19:43:09.287Z,10.54
2019-02-26T19:45:38.623Z,10.53
2019-02-26T19:48:07.991Z,10.47
2019-02-26T19:50:37.333Z,10.51
2019-02-26T19:53:06.816Z,10.32
2019-02-26T19:55:39.162Z,10.25
2019-02-26T19:58:08.603Z,10.04
2019-02-26T20:00:38.004Z,10.08
2019-02-26T20:03:07.374Z,10.26
2019-02-26T20:05:36.701Z,10.13
2019-02-26T20:08:06.190Z,10.10
2019-02-26T20:10:35.638Z,10.40
2019-02-26T20:13:05.063Z,10.33
2019-02-26T20:15:34.437Z,10.39
2019-02-26T20:18:03.774Z,10.01
2019-02-26T20:20:40.578Z,9.71
2019-02-26T20:23:06.004Z,10.14
2019-02-26T20:25:35.350Z,10.01
2019-02-26T20:28:05.469Z,9.70
2019-02-26T20:30:35.230Z,9.53
2019-02-26T20:33:04.843Z,9.75
2019-02-26T20:35:34.252Z,9.74
2019-02-26T20:38:03.798Z,9.67
2019-02-26T20:40:33.182Z,9.55
2019-02-26T20:43:05.227Z,9.35
2019-02-26T20:45:33.560Z,9.67
2019-02-26T20:48:04.238Z,9.57
2019-02-26T20:50:33.863Z,9.75
2019-02-26T20:53:05.888Z,9.44
2019-02-26T20:55:35.812Z,9.38
2019-02-26T20:58:05.267Z,9.57
2019-02-26T21:00:34.597Z,9.58
2019-02-26T21:03:03.945Z,9.68
2019-02-26T21:05:33.339Z,9.25
2019-02-26T21:08:02.639Z,9.31
2019-02-26T21:10:33.375Z,9.13
2019-02-26T21:13:02.729Z,9.13
2019-02-26T21:15:32.120Z,9.24
2019-02-26T21:18:01.403Z,9.24
2019-02-26T21:20:30.704Z,8.77
2019-02-26T21:23:00.022Z,8.97
2019-02-26T21:25:29.329Z,8.97
2019-02-26T21:28:01.443Z,8.83
2019-02-26T21:30:30.026Z,8.83
2019-02-26T21:32:59.691Z,8.45
2019-02-26T21:35:28.976Z,8.46
2019-02-26T21:37:58.430Z,8.38
2019-02-26T21:40:27.739Z,8.24
2019-02-26T21:42:57.180Z,8.33
2019-02-26T21:45:26.449Z,8.16
2019-02-26T21:47:55.813Z,7.98
2019-02-26T21:50:25.095Z,7.81
2019-02-26T21:53:01.459Z,7.78
2019-02-26T21:55:25.408Z,7.80
2019-02-26T21:57:55.343Z,7.81
2019-02-26T22:00:24.663Z,7.95
2019-02-26T22:02:53.957Z,8.08
2019-02-26T22:05:23.229Z,8.01
2019-02-26T22:07:53.028Z,7.67
2019-02-26T22:10:22.580Z,7.83
2019-02-26T22:12:51.870Z,7.95
2019-02-26T22:15:21.196Z,7.90
2019-02-26T22:17:50.466Z,7.89
2019-02-26T22:20:32.697Z,7.76
2019-02-26T22:22:51.531Z,7.80
2019-02-26T22:25:20.850Z,7.79
2019-02-26T22:27:50.160Z,7.66
2019-02-26T22:30:22.164Z,7.64
2019-02-26T22:32:51.241Z,7.68
2019-02-26T22:35:20.658Z,7.47
2019-02-26T22:37:50.022Z,7.47
2019-02-26T22:40:22.901Z,7.40
2019-02-26T22:42:52.470Z,7.19
2019-02-26T22:45:22.301Z,7.21
2019-02-26T22:47:51.712Z,7.33
2019-02-26T22:50:21.030Z,7.15
2019-02-26T22:52:50.344Z,7.15
2019-02-26T22:55:19.621Z,7.23
2019-02-26T22:57:48.920Z,7.29
2019-02-26T23:00:48.408Z,7.02
2019-02-26T23:03:14.970Z,7.05
2019-02-26T23:05:44.328Z,7.15
2019-02-26T23:08:14.139Z,7.29
2019-02-26T23:10:44.051Z,7.17
2019-02-26T23:13:13.999Z,7.25
2019-02-26T23:15:45.858Z,7.11
2019-02-26T23:18:15.707Z,7.14
2019-02-26T23:20:45.087Z,6.85
2019-02-26T23:23:15.322Z,6.98
2019-02-26T23:25:44.825Z,6.67
2019-02-26T23:28:14.204Z,6.91
2019-02-26T23:30:43.866Z,6.91
2019-02-26T23:33:15.255Z,6.66
2019-02-26T23:35:44.683Z,6.76
2019-02-26T23:38:14.048Z,6.76
2019-02-26T23:40:43.419Z,6.60
2019-02-26T23:43:12.775Z,6.64
2019-02-26T23:45:42.143Z,6.54
2019-02-26T23:48:11.488Z,6.56
2019-02-26T23:50:40.795Z,6.47
2019-02-26T23:53:10.086Z,6.21
2019-02-26T23:55:39.494Z,6.26
2019-02-26T23:58:08.846Z,6.18
